sensor_id;sensor_type;location;lat;lon;timestamp;P1;durP1;ratioP1;P2;durP2;ratioP2
30571;SDS011;17348;50.948;10.696;2023-07-13T00:00:52;1.67;;;1.00;;
30571;SDS011;17348;50.948;10.696;2023-07-13T00:03:57;3.35;;;1.10;;
30571;SDS011;17348;50.948;10.696;2023-07-13T00:06:59;4.35;;;1.17;;
30571;SDS011;17348;50.948;10.696;2023-07-13T00:10:03;3.20;;;1.10;;
30571;SDS011;17348;50.948;10.696;2023-07-13T00:13:07;8.63;;;1.95;;
30571;SDS011;17348;50.948;10.696;2023-07-13T00:16:10;2.90;;;1.25;;
30571;SDS011;17348;50.948;10.696;2023-07-13T00:19:14;1.92;;;0.90;;
30571;SDS011;17348;50.948;10.696;2023-07-13T00:22:16;4.82;;;1.42;;
30571;SDS011;17348;50.948;10.696;2023-07-13T00:25:20;3.17;;;1.23;;
30571;SDS011;17348;50.948;10.696;2023-07-13T00:28:24;3.20;;;1.30;;
30571;SDS011;17348;50.948;10.696;2023-07-13T00:31:27;2.92;;;1.13;;
30571;SDS011;17348;50.948;10.696;2023-07-13T00:34:29;2.22;;;1.35;;
30571;SDS011;17348;50.948;10.696;2023-07-13T00:37:31;3.40;;;1.42;;
30571;SDS011;17348;50.948;10.696;2023-07-13T00:40:37;6.05;;;1.25;;
30571;SDS011;17348;50.948;10.696;2023-07-13T00:43:40;2.80;;;1.48;;
30571;SDS011;17348;50.948;10.696;2023-07-13T00:46:42;7.35;;;1.15;;
30571;SDS011;17348;50.948;10.696;2023-07-13T00:49:45;1.60;;;1.20;;
30571;SDS011;17348;50.948;10.696;2023-07-13T00:52:49;4.43;;;1.40;;
30571;SDS011;17348;50.948;10.696;2023-07-13T00:55:56;2.33;;;0.95;;
30571;SDS011;17348;50.948;10.696;2023-07-13T00:58:59;3.65;;;1.30;;
30571;SDS011;17348;50.948;10.696;2023-07-13T01:02:04;4.18;;;1.50;;
30571;SDS011;17348;50.948;10.696;2023-07-13T01:05:08;6.13;;;1.50;;
30571;SDS011;17348;50.948;10.696;2023-07-13T01:08:11;4.50;;;1.50;;
30571;SDS011;17348;50.948;10.696;2023-07-13T01:11:17;1.85;;;1.13;;
30571;SDS011;17348;50.948;10.696;2023-07-13T01:14:20;7.43;;;1.40;;
30571;SDS011;17348;50.948;10.696;2023-07-13T01:17:23;2.45;;;1.48;;
30571;SDS011;17348;50.948;10.696;2023-07-13T01:20:25;7.90;;;1.45;;
30571;SDS011;17348;50.948;10.696;2023-07-13T01:23:29;2.28;;;1.30;;
30571;SDS011;17348;50.948;10.696;2023-07-13T01:26:33;1.58;;;1.35;;
30571;SDS011;17348;50.948;10.696;2023-07-13T01:29:35;4.65;;;1.55;;
30571;SDS011;17348;50.948;10.696;2023-07-13T01:32:42;9.10;;;1.33;;
30571;SDS011;17348;50.948;10.696;2023-07-13T01:35:44;11.20;;;1.33;;
30571;SDS011;17348;50.948;10.696;2023-07-13T01:38:49;7.38;;;1.50;;
30571;SDS011;17348;50.948;10.696;2023-07-13T01:41:51;2.03;;;1.08;;
30571;SDS011;17348;50.948;10.696;2023-07-13T01:44:53;1.95;;;1.05;;
30571;SDS011;17348;50.948;10.696;2023-07-13T01:47:56;2.90;;;1.15;;
30571;SDS011;17348;50.948;10.696;2023-07-13T01:50:59;2.83;;;1.38;;
30571;SDS011;17348;50.948;10.696;2023-07-13T01:54:02;3.47;;;0.88;;
30571;SDS011;17348;50.948;10.696;2023-07-13T01:57:05;3.30;;;1.30;;
30571;SDS011;17348;50.948;10.696;2023-07-13T02:00:08;2.60;;;1.20;;
30571;SDS011;17348;50.948;10.696;2023-07-13T02:03:12;2.38;;;1.23;;
30571;SDS011;17348;50.948;10.696;2023-07-13T02:06:18;10.07;;;1.38;;
30571;SDS011;17348;50.948;10.696;2023-07-13T02:09:22;2.33;;;0.90;;
30571;SDS011;17348;50.948;10.696;2023-07-13T02:12:24;3.97;;;1.30;;
30571;SDS011;17348;50.948;10.696;2023-07-13T02:15:26;8.43;;;1.20;;
30571;SDS011;17348;50.948;10.696;2023-07-13T02:18:28;3.88;;;1.35;;
30571;SDS011;17348;50.948;10.696;2023-07-13T02:21:31;7.53;;;1.50;;
30571;SDS011;17348;50.948;10.696;2023-07-13T02:24:34;5.25;;;1.10;;
30571;SDS011;17348;50.948;10.696;2023-07-13T02:27:38;5.03;;;1.23;;
30571;SDS011;17348;50.948;10.696;2023-07-13T02:30:40;5.03;;;1.17;;
30571;SDS011;17348;50.948;10.696;2023-07-13T02:33:43;5.53;;;0.98;;
30571;SDS011;17348;50.948;10.696;2023-07-13T02:36:45;2.20;;;1.40;;
30571;SDS011;17348;50.948;10.696;2023-07-13T02:39:49;2.53;;;0.95;;
30571;SDS011;17348;50.948;10.696;2023-07-13T02:42:51;2.10;;;1.20;;
30571;SDS011;17348;50.948;10.696;2023-07-13T02:45:54;2.63;;;1.30;;
30571;SDS011;17348;50.948;10.696;2023-07-13T02:49:01;2.33;;;1.10;;
30571;SDS011;17348;50.948;10.696;2023-07-13T02:52:04;6.60;;;1.58;;
30571;SDS011;17348;50.948;10.696;2023-07-13T02:55:08;3.97;;;1.30;;
30571;SDS011;17348;50.948;10.696;2023-07-13T02:58:11;2.47;;;1.50;;
30571;SDS011;17348;50.948;10.696;2023-07-13T03:01:17;3.30;;;1.60;;
30571;SDS011;17348;50.948;10.696;2023-07-13T03:04:19;2.20;;;1.45;;
30571;SDS011;17348;50.948;10.696;2023-07-13T03:07:22;1.85;;;1.30;;
30571;SDS011;17348;50.948;10.696;2023-07-13T03:10:26;3.00;;;1.20;;
30571;SDS011;17348;50.948;10.696;2023-07-13T03:13:29;3.25;;;1.38;;
30571;SDS011;17348;50.948;10.696;2023-07-13T03:16:31;5.55;;;1.35;;
30571;SDS011;17348;50.948;10.696;2023-07-13T03:19:33;1.77;;;1.20;;
30571;SDS011;17348;50.948;10.696;2023-07-13T03:22:35;4.93;;;1.30;;
30571;SDS011;17348;50.948;10.696;2023-07-13T03:25:39;4.97;;;1.90;;
30571;SDS011;17348;50.948;10.696;2023-07-13T03:28:41;3.65;;;1.23;;
30571;SDS011;17348;50.948;10.696;2023-07-13T03:31:44;4.40;;;1.20;;
30571;SDS011;17348;50.948;10.696;2023-07-13T03:34:47;4.53;;;1.30;;
30571;SDS011;17348;50.948;10.696;2023-07-13T03:37:49;1.52;;;1.05;;
30571;SDS011;17348;50.948;10.696;2023-07-13T03:40:53;5.18;;;1.60;;
30571;SDS011;17348;50.948;10.696;2023-07-13T03:43:55;8.68;;;1.70;;
30571;SDS011;17348;50.948;10.696;2023-07-13T03:46:58;7.28;;;2.05;;
30571;SDS011;17348;50.948;10.696;2023-07-13T03:50:00;5.85;;;1.50;;
30571;SDS011;17348;50.948;10.696;2023-07-13T03:53:03;2.28;;;1.63;;
30571;SDS011;17348;50.948;10.696;2023-07-13T03:56:06;3.50;;;1.70;;
30571;SDS011;17348;50.948;10.696;2023-07-13T03:59:09;1.35;;;1.25;;
30571;SDS011;17348;50.948;10.696;2023-07-13T04:02:12;3.75;;;1.63;;
30571;SDS011;17348;50.948;10.696;2023-07-13T04:05:14;4.07;;;1.42;;
30571;SDS011;17348;50.948;10.696;2023-07-13T04:08:16;12.85;;;1.77;;
30571;SDS011;17348;50.948;10.696;2023-07-13T04:11:20;4.63;;;1.08;;
30571;SDS011;17348;50.948;10.696;2023-07-13T04:14:24;5.97;;;1.90;;
30571;SDS011;17348;50.948;10.696;2023-07-13T04:17:26;12.35;;;1.60;;
30571;SDS011;17348;50.948;10.696;2023-07-13T04:20:29;2.70;;;1.58;;
30571;SDS011;17348;50.948;10.696;2023-07-13T04:23:31;4.30;;;1.35;;
30571;SDS011;17348;50.948;10.696;2023-07-13T04:26:35;2.65;;;1.45;;
30571;SDS011;17348;50.948;10.696;2023-07-13T04:29:39;5.57;;;1.25;;
30571;SDS011;17348;50.948;10.696;2023-07-13T04:32:41;5.40;;;1.52;;
30571;SDS011;17348;50.948;10.696;2023-07-13T04:35:43;2.17;;;1.20;;
30571;SDS011;17348;50.948;10.696;2023-07-13T04:38:47;4.85;;;1.83;;
30571;SDS011;17348;50.948;10.696;2023-07-13T04:41:51;6.10;;;1.58;;
30571;SDS011;17348;50.948;10.696;2023-07-13T04:44:54;14.20;;;1.95;;
30571;SDS011;17348;50.948;10.696;2023-07-13T04:47:56;5.07;;;1.80;;
30571;SDS011;17348;50.948;10.696;2023-07-13T04:50:58;5.78;;;1.55;;
30571;SDS011;17348;50.948;10.696;2023-07-13T04:54:02;8.45;;;1.50;;
30571;SDS011;17348;50.948;10.696;2023-07-13T04:57:07;5.25;;;1.52;;
30571;SDS011;17348;50.948;10.696;2023-07-13T05:00:09;6.93;;;1.88;;
30571;SDS011;17348;50.948;10.696;2023-07-13T05:03:13;7.15;;;1.58;;
30571;SDS011;17348;50.948;10.696;2023-07-13T05:06:15;4.35;;;1.70;;
30571;SDS011;17348;50.948;10.696;2023-07-13T05:09:17;7.53;;;2.40;;
30571;SDS011;17348;50.948;10.696;2023-07-13T05:12:21;3.80;;;1.30;;
30571;SDS011;17348;50.948;10.696;2023-07-13T05:15:24;4.10;;;1.48;;
30571;SDS011;17348;50.948;10.696;2023-07-13T05:18:27;4.22;;;1.40;;
30571;SDS011;17348;50.948;10.696;2023-07-13T05:21:29;11.73;;;1.33;;
30571;SDS011;17348;50.948;10.696;2023-07-13T05:24:31;6.80;;;1.70;;
30571;SDS011;17348;50.948;10.696;2023-07-13T05:27:35;10.02;;;1.75;;
30571;SDS011;17348;50.948;10.696;2023-07-13T05:30:38;17.85;;;1.92;;
30571;SDS011;17348;50.948;10.696;2023-07-13T05:33:40;9.80;;;1.77;;
30571;SDS011;17348;50.948;10.696;2023-07-13T05:36:43;5.38;;;1.58;;
30571;SDS011;17348;50.948;10.696;2023-07-13T05:39:45;4.25;;;1.50;;
30571;SDS011;17348;50.948;10.696;2023-07-13T05:42:49;4.72;;;1.52;;
30571;SDS011;17348;50.948;10.696;2023-07-13T05:45:52;3.63;;;1.48;;
30571;SDS011;17348;50.948;10.696;2023-07-13T05:48:55;4.32;;;1.48;;
30571;SDS011;17348;50.948;10.696;2023-07-13T05:51:58;9.23;;;1.55;;
30571;SDS011;17348;50.948;10.696;2023-07-13T05:55:00;12.68;;;1.77;;
30571;SDS011;17348;50.948;10.696;2023-07-13T05:58:05;10.57;;;2.22;;
30571;SDS011;17348;50.948;10.696;2023-07-13T06:01:09;5.03;;;1.75;;
30571;SDS011;17348;50.948;10.696;2023-07-13T06:04:13;3.92;;;1.20;;
30571;SDS011;17348;50.948;10.696;2023-07-13T06:07:15;4.90;;;1.42;;
30571;SDS011;17348;50.948;10.696;2023-07-13T06:10:17;9.35;;;1.58;;
30571;SDS011;17348;50.948;10.696;2023-07-13T06:13:21;7.80;;;1.85;;
30571;SDS011;17348;50.948;10.696;2023-07-13T06:16:23;8.05;;;1.38;;
30571;SDS011;17348;50.948;10.696;2023-07-13T06:19:26;5.85;;;1.52;;
30571;SDS011;17348;50.948;10.696;2023-07-13T06:22:30;5.38;;;1.23;;
30571;SDS011;17348;50.948;10.696;2023-07-13T06:25:32;8.73;;;1.50;;
30571;SDS011;17348;50.948;10.696;2023-07-13T06:28:36;9.32;;;1.60;;
30571;SDS011;17348;50.948;10.696;2023-07-13T06:31:40;4.30;;;1.33;;
30571;SDS011;17348;50.948;10.696;2023-07-13T06:34:42;5.63;;;1.70;;
30571;SDS011;17348;50.948;10.696;2023-07-13T06:37:44;9.38;;;2.88;;
30571;SDS011;17348;50.948;10.696;2023-07-13T06:40:48;6.18;;;1.70;;
30571;SDS011;17348;50.948;10.696;2023-07-13T06:43:51;5.13;;;1.60;;
30571;SDS011;17348;50.948;10.696;2023-07-13T06:46:54;6.20;;;1.65;;
30571;SDS011;17348;50.948;10.696;2023-07-13T06:49:57;3.63;;;1.80;;
30571;SDS011;17348;50.948;10.696;2023-07-13T06:53:00;10.30;;;1.42;;
30571;SDS011;17348;50.948;10.696;2023-07-13T06:56:03;9.57;;;1.50;;
30571;SDS011;17348;50.948;10.696;2023-07-13T06:59:08;11.38;;;1.90;;
30571;SDS011;17348;50.948;10.696;2023-07-13T07:02:10;8.45;;;1.60;;
30571;SDS011;17348;50.948;10.696;2023-07-13T07:05:13;4.78;;;1.63;;
30571;SDS011;17348;50.948;10.696;2023-07-13T07:08:15;8.75;;;1.50;;
30571;SDS011;17348;50.948;10.696;2023-07-13T07:11:18;5.97;;;1.50;;
30571;SDS011;17348;50.948;10.696;2023-07-13T07:14:24;7.32;;;1.75;;
30571;SDS011;17348;50.948;10.696;2023-07-13T07:17:26;7.97;;;1.35;;
30571;SDS011;17348;50.948;10.696;2023-07-13T07:20:28;6.05;;;1.60;;
30571;SDS011;17348;50.948;10.696;2023-07-13T07:23:31;5.65;;;1.30;;
30571;SDS011;17348;50.948;10.696;2023-07-13T07:26:33;4.88;;;1.67;;
30571;SDS011;17348;50.948;10.696;2023-07-13T07:29:37;6.22;;;1.45;;
30571;SDS011;17348;50.948;10.696;2023-07-13T07:32:39;7.13;;;1.77;;
30571;SDS011;17348;50.948;10.696;2023-07-13T07:35:42;7.15;;;1.80;;
30571;SDS011;17348;50.948;10.696;2023-07-13T07:38:44;2.88;;;1.40;;
30571;SDS011;17348;50.948;10.696;2023-07-13T07:41:47;3.70;;;1.42;;
30571;SDS011;17348;50.948;10.696;2023-07-13T07:44:51;2.90;;;1.35;;
30571;SDS011;17348;50.948;10.696;2023-07-13T07:47:54;2.75;;;1.55;;
30571;SDS011;17348;50.948;10.696;2023-07-13T07:50:59;7.82;;;1.70;;
30571;SDS011;17348;50.948;10.696;2023-07-13T07:54:01;2.55;;;1.48;;
30571;SDS011;17348;50.948;10.696;2023-07-13T07:57:05;6.82;;;1.40;;
30571;SDS011;17348;50.948;10.696;2023-07-13T08:00:10;5.15;;;1.50;;
30571;SDS011;17348;50.948;10.696;2023-07-13T08:03:13;6.57;;;1.40;;
30571;SDS011;17348;50.948;10.696;2023-07-13T08:06:16;7.97;;;1.60;;
30571;SDS011;17348;50.948;10.696;2023-07-13T08:09:20;5.88;;;1.52;;
30571;SDS011;17348;50.948;10.696;2023-07-13T08:12:22;3.83;;;1.73;;
30571;SDS011;17348;50.948;10.696;2023-07-13T08:15:26;6.72;;;1.52;;
30571;SDS011;17348;50.948;10.696;2023-07-13T08:18:28;4.85;;;1.40;;
30571;SDS011;17348;50.948;10.696;2023-07-13T08:21:31;2.17;;;1.20;;
30571;SDS011;17348;50.948;10.696;2023-07-13T08:24:33;1.13;;;0.85;;
30571;SDS011;17348;50.948;10.696;2023-07-13T08:27:36;5.15;;;1.10;;
30571;SDS011;17348;50.948;10.696;2023-07-13T08:30:40;4.68;;;1.02;;
30571;SDS011;17348;50.948;10.696;2023-07-13T08:33:42;3.85;;;0.90;;
30571;SDS011;17348;50.948;10.696;2023-07-13T08:36:44;3.88;;;0.70;;
30571;SDS011;17348;50.948;10.696;2023-07-13T08:39:47;0.75;;;0.45;;
30571;SDS011;17348;50.948;10.696;2023-07-13T08:42:51;1.65;;;0.88;;
30571;SDS011;17348;50.948;10.696;2023-07-13T08:45:59;6.32;;;0.90;;
30571;SDS011;17348;50.948;10.696;2023-07-13T08:49:04;6.60;;;0.80;;
30571;SDS011;17348;50.948;10.696;2023-07-13T08:52:14;3.85;;;1.08;;
30571;SDS011;17348;50.948;10.696;2023-07-13T08:55:24;1.73;;;0.65;;
30571;SDS011;17348;50.948;10.696;2023-07-13T08:58:31;6.55;;;1.05;;
30571;SDS011;17348;50.948;10.696;2023-07-13T09:01:45;2.63;;;0.68;;
30571;SDS011;17348;50.948;10.696;2023-07-13T09:04:57;3.55;;;0.90;;
30571;SDS011;17348;50.948;10.696;2023-07-13T09:08:07;6.78;;;1.02;;
30571;SDS011;17348;50.948;10.696;2023-07-13T09:11:23;3.30;;;0.68;;
30571;SDS011;17348;50.948;10.696;2023-07-13T09:14:41;2.25;;;0.85;;
30571;SDS011;17348;50.948;10.696;2023-07-13T09:17:48;2.33;;;0.80;;
30571;SDS011;17348;50.948;10.696;2023-07-13T09:20:54;1.73;;;0.52;;
30571;SDS011;17348;50.948;10.696;2023-07-13T09:24:01;5.15;;;1.20;;
30571;SDS011;17348;50.948;10.696;2023-07-13T09:27:15;6.13;;;0.65;;
30571;SDS011;17348;50.948;10.696;2023-07-13T09:30:24;3.70;;;0.68;;
30571;SDS011;17348;50.948;10.696;2023-07-13T09:33:35;2.45;;;0.70;;
30571;SDS011;17348;50.948;10.696;2023-07-13T09:36:38;1.67;;;0.70;;
30571;SDS011;17348;50.948;10.696;2023-07-13T09:39:41;6.72;;;0.82;;
30571;SDS011;17348;50.948;10.696;2023-07-13T09:42:44;3.67;;;0.50;;
30571;SDS011;17348;50.948;10.696;2023-07-13T09:45:47;2.90;;;0.60;;
30571;SDS011;17348;50.948;10.696;2023-07-13T09:48:50;1.60;;;0.60;;
30571;SDS011;17348;50.948;10.696;2023-07-13T09:51:57;4.93;;;0.70;;
30571;SDS011;17348;50.948;10.696;2023-07-13T09:55:01;1.25;;;0.60;;
30571;SDS011;17348;50.948;10.696;2023-07-13T09:58:04;5.80;;;0.82;;
30571;SDS011;17348;50.948;10.696;2023-07-13T10:01:11;0.85;;;0.50;;
30571;SDS011;17348;50.948;10.696;2023-07-13T10:04:16;1.58;;;0.50;;
30571;SDS011;17348;50.948;10.696;2023-07-13T10:07:22;1.27;;;0.70;;
30571;SDS011;17348;50.948;10.696;2023-07-13T10:10:24;1.15;;;0.57;;
30571;SDS011;17348;50.948;10.696;2023-07-13T10:13:28;1.20;;;0.47;;
30571;SDS011;17348;50.948;10.696;2023-07-13T10:16:33;2.70;;;0.77;;
30571;SDS011;17348;50.948;10.696;2023-07-13T10:19:38;1.58;;;0.50;;
30571;SDS011;17348;50.948;10.696;2023-07-13T10:22:45;4.47;;;0.50;;
30571;SDS011;17348;50.948;10.696;2023-07-13T10:25:52;1.75;;;0.68;;
30571;SDS011;17348;50.948;10.696;2023-07-13T10:28:55;1.42;;;0.50;;
30571;SDS011;17348;50.948;10.696;2023-07-13T10:32:00;1.08;;;0.50;;
30571;SDS011;17348;50.948;10.696;2023-07-13T10:35:05;2.05;;;0.52;;
30571;SDS011;17348;50.948;10.696;2023-07-13T10:38:11;4.65;;;0.60;;
30571;SDS011;17348;50.948;10.696;2023-07-13T10:41:17;0.57;;;0.40;;
30571;SDS011;17348;50.948;10.696;2023-07-13T10:44:23;1.58;;;0.45;;
30571;SDS011;17348;50.948;10.696;2023-07-13T10:47:29;2.33;;;0.82;;
30571;SDS011;17348;50.948;10.696;2023-07-13T10:50:33;1.23;;;0.52;;
30571;SDS011;17348;50.948;10.696;2023-07-13T10:53:39;2.83;;;0.50;;
30571;SDS011;17348;50.948;10.696;2023-07-13T10:56:41;1.65;;;0.57;;
30571;SDS011;17348;50.948;10.696;2023-07-13T10:59:46;6.22;;;0.70;;
30571;SDS011;17348;50.948;10.696;2023-07-13T11:02:55;1.13;;;0.60;;
30571;SDS011;17348;50.948;10.696;2023-07-13T11:06:07;2.85;;;0.57;;
30571;SDS011;17348;50.948;10.696;2023-07-13T11:12:50;2.60;;;1.13;;
30571;SDS011;17348;50.948;10.696;2023-07-13T11:15:54;1.30;;;0.50;;
30571;SDS011;17348;50.948;10.696;2023-07-13T11:19:08;1.73;;;0.55;;
30571;SDS011;17348;50.948;10.696;2023-07-13T11:22:45;2.80;;;0.80;;
30571;SDS011;17348;50.948;10.696;2023-07-13T11:25:49;1.15;;;0.40;;
30571;SDS011;17348;50.948;10.696;2023-07-13T11:28:51;0.60;;;0.40;;
30571;SDS011;17348;50.948;10.696;2023-07-13T11:31:55;1.08;;;0.47;;
30571;SDS011;17348;50.948;10.696;2023-07-13T11:34:58;1.27;;;0.40;;
30571;SDS011;17348;50.948;10.696;2023-07-13T11:38:02;0.73;;;0.50;;
30571;SDS011;17348;50.948;10.696;2023-07-13T11:44:17;2.75;;;0.52;;
30571;SDS011;17348;50.948;10.696;2023-07-13T11:47:21;7.72;;;0.57;;
30571;SDS011;17348;50.948;10.696;2023-07-13T11:50:26;1.05;;;0.55;;
30571;SDS011;17348;50.948;10.696;2023-07-13T11:53:31;4.53;;;0.63;;
30571;SDS011;17348;50.948;10.696;2023-07-13T11:56:39;0.98;;;0.47;;
30571;SDS011;17348;50.948;10.696;2023-07-13T11:59:42;0.30;;;0.30;;
30571;SDS011;17348;50.948;10.696;2023-07-13T12:02:46;1.27;;;0.60;;
30571;SDS011;17348;50.948;10.696;2023-07-13T12:05:57;7.88;;;0.75;;
30571;SDS011;17348;50.948;10.696;2023-07-13T12:09:08;2.72;;;0.43;;
30571;SDS011;17348;50.948;10.696;2023-07-13T12:12:14;2.92;;;0.60;;
30571;SDS011;17348;50.948;10.696;2023-07-13T12:15:19;3.90;;;0.50;;
30571;SDS011;17348;50.948;10.696;2023-07-13T12:18:27;4.85;;;0.40;;
30571;SDS011;17348;50.948;10.696;2023-07-13T12:21:32;4.28;;;0.60;;
30571;SDS011;17348;50.948;10.696;2023-07-13T12:24:37;1.95;;;0.80;;
30571;SDS011;17348;50.948;10.696;2023-07-13T12:27:41;0.90;;;0.70;;
30571;SDS011;17348;50.948;10.696;2023-07-13T12:30:47;1.40;;;0.35;;
30571;SDS011;17348;50.948;10.696;2023-07-13T12:33:55;5.10;;;0.70;;
30571;SDS011;17348;50.948;10.696;2023-07-13T12:37:00;1.63;;;0.90;;
30571;SDS011;17348;50.948;10.696;2023-07-13T12:40:05;1.55;;;0.65;;
30571;SDS011;17348;50.948;10.696;2023-07-13T12:43:14;1.65;;;0.50;;
30571;SDS011;17348;50.948;10.696;2023-07-13T12:46:18;3.33;;;0.40;;
30571;SDS011;17348;50.948;10.696;2023-07-13T12:49:23;0.65;;;0.43;;
30571;SDS011;17348;50.948;10.696;2023-07-13T12:52:29;4.28;;;0.50;;
30571;SDS011;17348;50.948;10.696;2023-07-13T12:55:41;1.02;;;0.38;;
30571;SDS011;17348;50.948;10.696;2023-07-13T12:58:45;3.22;;;0.75;;
30571;SDS011;17348;50.948;10.696;2023-07-13T13:01:54;1.92;;;0.70;;
30571;SDS011;17348;50.948;10.696;2023-07-13T13:04:57;2.22;;;0.63;;
30571;SDS011;17348;50.948;10.696;2023-07-13T13:08:00;3.92;;;0.50;;
30571;SDS011;17348;50.948;10.696;2023-07-13T13:11:04;2.08;;;0.63;;
30571;SDS011;17348;50.948;10.696;2023-07-13T13:14:06;3.05;;;0.50;;
30571;SDS011;17348;50.948;10.696;2023-07-13T13:17:14;4.35;;;0.55;;
30571;SDS011;17348;50.948;10.696;2023-07-13T13:20:21;6.40;;;0.80;;
30571;SDS011;17348;50.948;10.696;2023-07-13T13:23:26;1.45;;;0.50;;
30571;SDS011;17348;50.948;10.696;2023-07-13T13:26:30;5.00;;;0.57;;
30571;SDS011;17348;50.948;10.696;2023-07-13T13:29:34;4.70;;;0.40;;
30571;SDS011;17348;50.948;10.696;2023-07-13T13:32:40;1.08;;;0.68;;
30571;SDS011;17348;50.948;10.696;2023-07-13T13:35:43;1.73;;;0.65;;
30571;SDS011;17348;50.948;10.696;2023-07-13T13:38:47;7.65;;;0.50;;
30571;SDS011;17348;50.948;10.696;2023-07-13T13:41:51;1.63;;;0.85;;
30571;SDS011;17348;50.948;10.696;2023-07-13T13:44:54;0.30;;;0.28;;
30571;SDS011;17348;50.948;10.696;2023-07-13T13:47:57;3.45;;;0.68;;
30571;SDS011;17348;50.948;10.696;2023-07-13T13:51:00;1.92;;;0.52;;
30571;SDS011;17348;50.948;10.696;2023-07-13T13:54:08;1.35;;;0.45;;
30571;SDS011;17348;50.948;10.696;2023-07-13T13:57:14;2.53;;;0.35;;
30571;SDS011;17348;50.948;10.696;2023-07-13T14:00:16;1.40;;;0.70;;
30571;SDS011;17348;50.948;10.696;2023-07-13T14:03:20;2.85;;;0.60;;
30571;SDS011;17348;50.948;10.696;2023-07-13T14:06:23;4.50;;;0.43;;
30571;SDS011;17348;50.948;10.696;2023-07-13T14:09:25;4.63;;;0.65;;
30571;SDS011;17348;50.948;10.696;2023-07-13T14:12:29;1.75;;;0.73;;
30571;SDS011;17348;50.948;10.696;2023-07-13T14:15:32;2.42;;;0.60;;
30571;SDS011;17348;50.948;10.696;2023-07-13T14:18:34;8.13;;;0.40;;
30571;SDS011;17348;50.948;10.696;2023-07-13T14:21:36;5.00;;;1.13;;
30571;SDS011;17348;50.948;10.696;2023-07-13T14:24:39;0.75;;;0.50;;
30571;SDS011;17348;50.948;10.696;2023-07-13T14:27:43;4.43;;;0.57;;
30571;SDS011;17348;50.948;10.696;2023-07-13T14:30:46;0.55;;;0.40;;
30571;SDS011;17348;50.948;10.696;2023-07-13T14:33:49;1.63;;;0.60;;
30571;SDS011;17348;50.948;10.696;2023-07-13T14:36:51;0.98;;;0.50;;
30571;SDS011;17348;50.948;10.696;2023-07-13T14:39:53;2.95;;;0.60;;
30571;SDS011;17348;50.948;10.696;2023-07-13T14:42:57;0.40;;;0.40;;
30571;SDS011;17348;50.948;10.696;2023-07-13T14:46:00;1.75;;;0.55;;
30571;SDS011;17348;50.948;10.696;2023-07-13T14:49:03;0.77;;;0.50;;
30571;SDS011;17348;50.948;10.696;2023-07-13T14:52:10;1.20;;;0.55;;
30571;SDS011;17348;50.948;10.696;2023-07-13T14:55:14;2.10;;;0.73;;
30571;SDS011;17348;50.948;10.696;2023-07-13T14:58:20;7.68;;;0.57;;
30571;SDS011;17348;50.948;10.696;2023-07-13T15:01:22;6.95;;;0.70;;
30571;SDS011;17348;50.948;10.696;2023-07-13T15:04:26;1.00;;;0.50;;
30571;SDS011;17348;50.948;10.696;2023-07-13T15:07:28;1.33;;;0.60;;
30571;SDS011;17348;50.948;10.696;2023-07-13T15:10:31;1.98;;;0.55;;
30571;SDS011;17348;50.948;10.696;2023-07-13T15:13:38;0.75;;;0.43;;
30571;SDS011;17348;50.948;10.696;2023-07-13T15:16:41;9.98;;;0.88;;
30571;SDS011;17348;50.948;10.696;2023-07-13T15:19:43;5.03;;;0.63;;
30571;SDS011;17348;50.948;10.696;2023-07-13T15:22:46;3.03;;;0.60;;
30571;SDS011;17348;50.948;10.696;2023-07-13T15:25:49;2.50;;;0.52;;
30571;SDS011;17348;50.948;10.696;2023-07-13T15:28:53;2.28;;;0.82;;
30571;SDS011;17348;50.948;10.696;2023-07-13T15:31:55;0.80;;;0.50;;
30571;SDS011;17348;50.948;10.696;2023-07-13T15:34:57;2.03;;;0.50;;
30571;SDS011;17348;50.948;10.696;2023-07-13T15:38:00;1.50;;;0.70;;
30571;SDS011;17348;50.948;10.696;2023-07-13T15:41:04;1.48;;;0.80;;
30571;SDS011;17348;50.948;10.696;2023-07-13T15:44:25;1.63;;;0.60;;
30571;SDS011;17348;50.948;10.696;2023-07-13T15:47:30;0.85;;;0.63;;
30571;SDS011;17348;50.948;10.696;2023-07-13T15:50:32;1.60;;;0.73;;
30571;SDS011;17348;50.948;10.696;2023-07-13T15:53:44;1.40;;;0.60;;
30571;SDS011;17348;50.948;10.696;2023-07-13T15:56:50;2.33;;;0.75;;
30571;SDS011;17348;50.948;10.696;2023-07-13T15:59:55;1.23;;;0.60;;
30571;SDS011;17348;50.948;10.696;2023-07-13T16:03:00;2.03;;;0.60;;
30571;SDS011;17348;50.948;10.696;2023-07-13T16:06:04;4.65;;;1.13;;
30571;SDS011;17348;50.948;10.696;2023-07-13T16:09:17;1.52;;;0.68;;
30571;SDS011;17348;50.948;10.696;2023-07-13T16:12:22;2.08;;;0.63;;
30571;SDS011;17348;50.948;10.696;2023-07-13T16:15:26;2.55;;;0.68;;
30571;SDS011;17348;50.948;10.696;2023-07-13T16:18:28;1.73;;;0.52;;
30571;SDS011;17348;50.948;10.696;2023-07-13T16:21:31;2.67;;;0.77;;
30571;SDS011;17348;50.948;10.696;2023-07-13T16:24:36;0.95;;;0.47;;
30571;SDS011;17348;50.948;10.696;2023-07-13T16:27:39;4.95;;;0.57;;
30571;SDS011;17348;50.948;10.696;2023-07-13T16:30:42;6.50;;;0.95;;
30571;SDS011;17348;50.948;10.696;2023-07-13T16:33:45;3.42;;;0.90;;
30571;SDS011;17348;50.948;10.696;2023-07-13T16:36:48;1.88;;;0.50;;
30571;SDS011;17348;50.948;10.696;2023-07-13T16:39:51;2.72;;;0.65;;
30571;SDS011;17348;50.948;10.696;2023-07-13T16:42:56;4.50;;;0.82;;
30571;SDS011;17348;50.948;10.696;2023-07-13T16:46:01;3.65;;;0.70;;
30571;SDS011;17348;50.948;10.696;2023-07-13T16:49:04;0.82;;;0.52;;
30571;SDS011;17348;50.948;10.696;2023-07-13T16:52:13;2.83;;;1.00;;
30571;SDS011;17348;50.948;10.696;2023-07-13T16:55:20;2.25;;;1.17;;
30571;SDS011;17348;50.948;10.696;2023-07-13T16:58:28;2.28;;;0.75;;
30571;SDS011;17348;50.948;10.696;2023-07-13T17:01:33;3.03;;;1.02;;
30571;SDS011;17348;50.948;10.696;2023-07-13T17:04:39;3.33;;;0.65;;
30571;SDS011;17348;50.948;10.696;2023-07-13T17:07:42;1.15;;;0.77;;
30571;SDS011;17348;50.948;10.696;2023-07-13T17:10:46;2.97;;;0.90;;
30571;SDS011;17348;50.948;10.696;2023-07-13T17:13:49;2.45;;;0.60;;
30571;SDS011;17348;50.948;10.696;2023-07-13T17:16:54;1.55;;;0.43;;
30571;SDS011;17348;50.948;10.696;2023-07-13T17:19:58;2.50;;;0.88;;
30571;SDS011;17348;50.948;10.696;2023-07-13T17:23:01;1.83;;;0.77;;
30571;SDS011;17348;50.948;10.696;2023-07-13T17:26:04;4.53;;;0.80;;
30571;SDS011;17348;50.948;10.696;2023-07-13T17:29:06;2.75;;;0.68;;
30571;SDS011;17348;50.948;10.696;2023-07-13T17:32:12;4.40;;;0.60;;
30571;SDS011;17348;50.948;10.696;2023-07-13T17:35:24;2.33;;;0.90;;
30571;SDS011;17348;50.948;10.696;2023-07-13T17:38:30;1.90;;;0.85;;
30571;SDS011;17348;50.948;10.696;2023-07-13T17:41:36;1.08;;;0.70;;
30571;SDS011;17348;50.948;10.696;2023-07-13T17:44:38;3.05;;;1.10;;
30571;SDS011;17348;50.948;10.696;2023-07-13T17:47:42;3.13;;;0.95;;
30571;SDS011;17348;50.948;10.696;2023-07-13T17:50:45;3.72;;;0.77;;
30571;SDS011;17348;50.948;10.696;2023-07-13T17:53:50;1.00;;;0.85;;
30571;SDS011;17348;50.948;10.696;2023-07-13T17:56:53;1.67;;;0.63;;
30571;SDS011;17348;50.948;10.696;2023-07-13T17:59:55;4.60;;;0.90;;
30571;SDS011;17348;50.948;10.696;2023-07-13T18:02:59;1.45;;;0.60;;
30571;SDS011;17348;50.948;10.696;2023-07-13T18:06:08;1.15;;;0.60;;
30571;SDS011;17348;50.948;10.696;2023-07-13T18:09:18;1.40;;;0.77;;
30571;SDS011;17348;50.948;10.696;2023-07-13T18:12:21;3.53;;;0.95;;
30571;SDS011;17348;50.948;10.696;2023-07-13T18:15:24;1.75;;;0.80;;
30571;SDS011;17348;50.948;10.696;2023-07-13T18:18:31;4.70;;;1.52;;